sensor_id;sensor_type;location;lat;lon;timestamp;pressure;altitude;pressure_sealevel;temperature;humidity
76122;BME280;70471;53.200;6.080;2024-03-02T00:00:19;99975.78;;;19.13;34.58
76122;BME280;70471;53.200;6.080;2024-03-02T00:05:12;99967.16;;;19.05;34.60
76122;BME280;70471;53.200;6.080;2024-03-02T00:10:08;99963.72;;;19.08;34.70
76122;BME280;70471;53.200;6.080;2024-03-02T00:15:00;99964.41;;;19.05;34.61
76122;BME280;70471;53.200;6.080;2024-03-02T00:19:54;99958.03;;;19.05;34.75
76122;BME280;70471;53.200;6.080;2024-03-02T00:24:46;99955.59;;;19.03;34.65
76122;BME280;70471;53.200;6.080;2024-03-02T00:29:37;99955.41;;;19.00;34.58
76122;BME280;70471;53.200;6.080;2024-03-02T00:34:29;99958.50;;;18.98;34.66
76122;BME280;70471;53.200;6.080;2024-03-02T00:39:22;99960.75;;;18.96;34.51
76122;BME280;70471;53.200;6.080;2024-03-02T00:44:15;99948.72;;;18.92;34.68
76122;BME280;70471;53.200;6.080;2024-03-02T00:49:12;99938.78;;;18.91;34.89
76122;BME280;70471;53.200;6.080;2024-03-02T00:54:09;99934.41;;;18.90;34.49
76122;BME280;70471;53.200;6.080;2024-03-02T00:59:03;99925.69;;;18.97;34.11
76122;BME280;70471;53.200;6.080;2024-03-02T01:03:54;99911.25;;;19.00;34.60
76122;BME280;70471;53.200;6.080;2024-03-02T01:08:46;99917.72;;;18.95;34.34
76122;BME280;70471;53.200;6.080;2024-03-02T01:13:41;99911.00;;;18.87;34.45
76122;BME280;70471;53.200;6.080;2024-03-02T01:18:33;99912.34;;;18.90;34.40
76122;BME280;70471;53.200;6.080;2024-03-02T01:23:25;99915.75;;;18.96;33.80
76122;BME280;70471;53.200;6.080;2024-03-02T01:28:17;99918.03;;;18.93;34.08
76122;BME280;70471;53.200;6.080;2024-03-02T01:33:09;99913.47;;;18.89;34.32
76122;BME280;70471;53.200;6.080;2024-03-02T01:38:02;99909.91;;;18.88;34.63
76122;BME280;70471;53.200;6.080;2024-03-02T01:42:54;99906.69;;;18.95;33.77
76122;BME280;70471;53.200;6.080;2024-03-02T01:47:46;99911.88;;;18.97;33.74
76122;BME280;70471;53.200;6.080;2024-03-02T01:52:37;99910.06;;;18.92;33.98
76122;BME280;70471;53.200;6.080;2024-03-02T01:57:30;99907.00;;;18.93;34.08
76122;BME280;70471;53.200;6.080;2024-03-02T02:02:22;99909.59;;;18.99;34.11
76122;BME280;70471;53.200;6.080;2024-03-02T02:07:14;99911.88;;;18.97;34.42
76122;BME280;70471;53.200;6.080;2024-03-02T02:12:05;99911.19;;;18.91;33.83
76122;BME280;70471;53.200;6.080;2024-03-02T02:16:59;99911.56;;;18.98;34.12
76122;BME280;70471;53.200;6.080;2024-03-02T02:21:52;99921.81;;;18.98;33.68
76122;BME280;70471;53.200;6.080;2024-03-02T02:26:43;99915.44;;;18.97;33.95
76122;BME280;70471;53.200;6.080;2024-03-02T02:31:38;99919.34;;;18.96;34.03
76122;BME280;70471;53.200;6.080;2024-03-02T02:36:30;99924.25;;;18.99;34.12
76122;BME280;70471;53.200;6.080;2024-03-02T02:41:23;99920.16;;;18.97;33.76
76122;BME280;70471;53.200;6.080;2024-03-02T02:46:14;99916.59;;;18.96;34.05
76122;BME280;70471;53.200;6.080;2024-03-02T02:51:06;99916.78;;;19.00;33.86
76122;BME280;70471;53.200;6.080;2024-03-02T02:55:57;99910.44;;;18.99;33.51
76122;BME280;70471;53.200;6.080;2024-03-02T03:00:50;99900.03;;;18.96;33.94
76122;BME280;70471;53.200;6.080;2024-03-02T03:05:41;99889.78;;;18.97;33.77
76122;BME280;70471;53.200;6.080;2024-03-02T03:10:32;99873.41;;;19.00;33.72
76122;BME280;70471;53.200;6.080;2024-03-02T03:15:24;99873.56;;;18.95;33.64
76122;BME280;70471;53.200;6.080;2024-03-02T03:20:17;99871.28;;;18.97;33.76
76122;BME280;70471;53.200;6.080;2024-03-02T03:25:08;99872.28;;;19.01;33.76
76122;BME280;70471;53.200;6.080;2024-03-02T03:30:00;99865.75;;;18.97;33.83
76122;BME280;70471;53.200;6.080;2024-03-02T03:34:51;99880.72;;;18.96;33.89
76122;BME280;70471;53.200;6.080;2024-03-02T03:39:44;99898.06;;;18.97;33.62
76122;BME280;70471;53.200;6.080;2024-03-02T03:44:35;99899.09;;;19.01;33.81
76122;BME280;70471;53.200;6.080;2024-03-02T03:49:27;99904.09;;;18.99;34.04
76122;BME280;70471;53.200;6.080;2024-03-02T03:54:18;99911.56;;;18.98;34.02
76122;BME280;70471;53.200;6.080;2024-03-02T03:59:11;99920.22;;;19.05;33.56
76122;BME280;70471;53.200;6.080;2024-03-02T04:04:03;99923.09;;;19.00;33.84
76122;BME280;70471;53.200;6.080;2024-03-02T04:08:54;99929.44;;;19.01;33.77
76122;BME280;70471;53.200;6.080;2024-03-02T04:13:46;99933.38;;;19.08;33.41
76122;BME280;70471;53.200;6.080;2024-03-02T04:18:39;99936.78;;;19.05;33.45
76122;BME280;70471;53.200;6.080;2024-03-02T04:23:30;99934.34;;;19.04;33.53
76122;BME280;70471;53.200;6.080;2024-03-02T04:28:22;99936.13;;;19.08;33.65
76122;BME280;70471;53.200;6.080;2024-03-02T04:33:13;99943.91;;;19.06;33.53
76122;BME280;70471;53.200;6.080;2024-03-02T04:38:06;99947.31;;;19.03;33.46
76122;BME280;70471;53.200;6.080;2024-03-02T04:42:57;99952.69;;;19.08;33.65
76122;BME280;70471;53.200;6.080;2024-03-02T04:47:49;99970.91;;;19.09;33.42
76122;BME280;70471;53.200;6.080;2024-03-02T04:52:40;99980.97;;;19.05;33.91
76122;BME280;70471;53.200;6.080;2024-03-02T04:57:33;99985.34;;;19.06;33.81
76122;BME280;70471;53.200;6.080;2024-03-02T05:02:24;99989.09;;;19.10;33.45
76122;BME280;70471;53.200;6.080;2024-03-02T05:07:16;99995.25;;;19.07;33.67
76122;BME280;70471;53.200;6.080;2024-03-02T05:12:07;100009.25;;;19.11;33.31
76122;BME280;70471;53.200;6.080;2024-03-02T05:17:20;100015.25;;;19.13;33.71
76122;BME280;70471;53.200;6.080;2024-03-02T05:22:12;100015.06;;;19.09;33.29
76122;BME280;70471;53.200;6.080;2024-03-02T05:27:03;99999.94;;;19.07;33.67
76122;BME280;70471;53.200;6.080;2024-03-02T05:31:56;100006.47;;;19.11;33.28
76122;BME280;70471;53.200;6.080;2024-03-02T05:36:49;100014.75;;;19.11;33.61
76122;BME280;70471;53.200;6.080;2024-03-02T05:41:40;100019.97;;;19.13;33.28
76122;BME280;70471;53.200;6.080;2024-03-02T05:46:32;100036.72;;;19.16;33.62
76122;BME280;70471;53.200;6.080;2024-03-02T05:51:23;100041.25;;;19.12;33.48
76122;BME280;70471;53.200;6.080;2024-03-02T05:56:16;100043.06;;;19.17;33.20
76122;BME280;70471;53.200;6.080;2024-03-02T06:01:08;100048.59;;;19.17;33.63
76122;BME280;70471;53.200;6.080;2024-03-02T06:05:59;100050.03;;;19.14;33.43
76122;BME280;70471;53.200;6.080;2024-03-02T06:10:50;100063.38;;;19.21;33.38
76122;BME280;70471;53.200;6.080;2024-03-02T06:15:43;100070.69;;;19.17;33.43
76122;BME280;70471;53.200;6.080;2024-03-02T06:20:35;100078.44;;;19.15;33.34
76122;BME280;70471;53.200;6.080;2024-03-02T06:25:27;100079.47;;;19.19;33.22
76122;BME280;70471;53.200;6.080;2024-03-02T06:30:18;100084.50;;;19.17;33.56
76122;BME280;70471;53.200;6.080;2024-03-02T06:35:11;100091.00;;;19.21;33.21
76122;BME280;70471;53.200;6.080;2024-03-02T06:40:03;100095.41;;;19.22;33.45
76122;BME280;70471;53.200;6.080;2024-03-02T06:44:54;100093.59;;;19.17;33.47
76122;BME280;70471;53.200;6.080;2024-03-02T06:49:46;100103.69;;;19.22;33.10
76122;BME280;70471;53.200;6.080;2024-03-02T06:54:39;100108.09;;;19.23;33.34
76122;BME280;70471;53.200;6.080;2024-03-02T06:59:30;100118.31;;;19.22;33.31
76122;BME280;70471;53.200;6.080;2024-03-02T07:04:23;100120.13;;;19.27;33.02
76122;BME280;70471;53.200;6.080;2024-03-02T07:09:15;100125.66;;;19.27;33.46
76122;BME280;70471;53.200;6.080;2024-03-02T07:14:08;100131.81;;;19.24;33.06
76122;BME280;70471;53.200;6.080;2024-03-02T07:18:59;100132.81;;;19.28;33.23
76122;BME280;70471;53.200;6.080;2024-03-02T07:23:51;100122.91;;;19.27;33.45
76122;BME280;70471;53.200;6.080;2024-03-02T07:28:43;100131.81;;;19.24;33.56
76122;BME280;70471;53.200;6.080;2024-03-02T07:33:36;100133.00;;;19.32;33.03
76122;BME280;70471;53.200;6.080;2024-03-02T07:38:28;100135.22;;;19.43;33.54
76122;BME280;70471;53.200;6.080;2024-03-02T07:43:19;100135.72;;;19.45;33.03
76122;BME280;70471;53.200;6.080;2024-03-02T07:48:11;100147.03;;;19.58;33.74
76122;BME280;70471;53.200;6.080;2024-03-02T07:53:04;100146.31;;;19.75;33.40
76122;BME280;70471;53.200;6.080;2024-03-02T07:57:56;100143.16;;;19.90;33.23
76122;BME280;70471;53.200;6.080;2024-03-02T08:02:47;100153.75;;;19.97;33.35
76122;BME280;70471;53.200;6.080;2024-03-02T08:07:41;100166.16;;;20.08;33.11
76122;BME280;70471;53.200;6.080;2024-03-02T08:12:33;100171.13;;;20.29;33.35
76122;BME280;70471;53.200;6.080;2024-03-02T08:17:25;100172.88;;;20.47;32.81
76122;BME280;70471;53.200;6.080;2024-03-02T08:22:16;100182.19;;;20.60;32.77
76122;BME280;70471;53.200;6.080;2024-03-02T08:27:08;100174.72;;;20.69;32.10
76122;BME280;70471;53.200;6.080;2024-03-02T08:32:01;100182.72;;;20.71;32.22
76122;BME280;70471;53.200;6.080;2024-03-02T08:36:53;100181.25;;;20.73;32.62
76122;BME280;70471;53.200;6.080;2024-03-02T08:41:45;100179.41;;;20.60;32.52
76122;BME280;70471;53.200;6.080;2024-03-02T08:46:37;100199.16;;;20.67;32.70
76122;BME280;70471;53.200;6.080;2024-03-02T08:51:30;100196.41;;;20.76;32.00
76122;BME280;70471;53.200;6.080;2024-03-02T08:56:22;100203.13;;;20.92;32.05
76122;BME280;70471;53.200;6.080;2024-03-02T09:01:14;100194.50;;;21.03;32.18
76122;BME280;70471;53.200;6.080;2024-03-02T09:06:05;100203.81;;;21.07;31.97
76122;BME280;70471;53.200;6.080;2024-03-02T09:10:59;100200.56;;;21.14;32.15
76122;BME280;70471;53.200;6.080;2024-03-02T09:15:50;100197.31;;;21.12;31.99
76122;BME280;70471;53.200;6.080;2024-03-02T09:20:42;100200.72;;;21.17;31.59
76122;BME280;70471;53.200;6.080;2024-03-02T09:25:34;100205.78;;;21.15;31.68
76122;BME280;70471;53.200;6.080;2024-03-02T09:30:27;100199.56;;;21.09;31.91
76122;BME280;70471;53.200;6.080;2024-03-02T09:35:19;100205.94;;;21.10;31.66
76122;BME280;70471;53.200;6.080;2024-03-02T09:40:11;100207.53;;;21.02;31.82
76122;BME280;70471;53.200;6.080;2024-03-02T09:45:04;100208.66;;;20.92;31.85
76122;BME280;70471;53.200;6.080;2024-03-02T09:49:56;100209.44;;;20.84;32.43
76122;BME280;70471;53.200;6.080;2024-03-02T09:54:48;100219.69;;;20.75;32.31
76122;BME280;70471;53.200;6.080;2024-03-02T09:59:39;100214.28;;;20.70;32.48
76122;BME280;70471;53.200;6.080;2024-03-02T10:04:31;100201.59;;;20.69;32.41
76122;BME280;70471;53.200;6.080;2024-03-02T10:09:28;100214.94;;;20.67;32.45
76122;BME280;70471;53.200;6.080;2024-03-02T10:14:19;100212.81;;;20.64;32.59
76122;BME280;70471;53.200;6.080;2024-03-02T10:19:18;100216.22;;;20.61;32.08
76122;BME280;70471;53.200;6.080;2024-03-02T10:24:10;100225.81;;;20.54;32.62
76122;BME280;70471;53.200;6.080;2024-03-02T10:29:04;100227.09;;;20.48;32.39
76122;BME280;70471;53.200;6.080;2024-03-02T10:33:55;100223.31;;;20.44;32.19
76122;BME280;70471;53.200;6.080;2024-03-02T10:38:49;100222.00;;;20.42;32.26
76122;BME280;70471;53.200;6.080;2024-03-02T10:43:46;100237.31;;;20.39;32.52
76122;BME280;70471;53.200;6.080;2024-03-02T10:48:39;100222.97;;;20.37;32.80
76122;BME280;70471;53.200;6.080;2024-03-02T10:53:33;100219.69;;;20.35;32.67
76122;BME280;70471;53.200;6.080;2024-03-02T10:58:28;100219.81;;;20.30;32.34
76122;BME280;70471;53.200;6.080;2024-03-02T11:03:22;100221.25;;;20.27;32.87
76122;BME280;70471;53.200;6.080;2024-03-02T11:08:18;100214.09;;;20.26;32.38
76122;BME280;70471;53.200;6.080;2024-03-02T11:13:12;100217.81;;;20.22;32.82
76122;BME280;70471;53.200;6.080;2024-03-02T11:18:04;100210.16;;;20.18;32.93
76122;BME280;70471;53.200;6.080;2024-03-02T11:23:05;100201.00;;;20.09;32.61
76122;BME280;70471;53.200;6.080;2024-03-02T11:28:03;100202.13;;;20.08;32.87
76122;BME280;70471;53.200;6.080;2024-03-02T11:32:55;100205.84;;;20.04;33.56
76122;BME280;70471;53.200;6.080;2024-03-02T11:37:47;100206.81;;;19.99;33.11
76122;BME280;70471;53.200;6.080;2024-03-02T11:42:38;100209.69;;;19.94;33.85
76122;BME280;70471;53.200;6.080;2024-03-02T11:47:32;100207.25;;;19.92;33.38
76122;BME280;70471;53.200;6.080;2024-03-02T11:52:25;100199.00;;;20.01;33.68
76122;BME280;70471;53.200;6.080;2024-03-02T11:57:21;100199.97;;;20.05;33.12
76122;BME280;70471;53.200;6.080;2024-03-02T12:02:15;100191.69;;;20.05;33.79
76122;BME280;70471;53.200;6.080;2024-03-02T12:07:08;100203.06;;;20.04;33.41
76122;BME280;70471;53.200;6.080;2024-03-02T12:12:04;100207.78;;;20.03;34.03
76122;BME280;70471;53.200;6.080;2024-03-02T12:16:56;100186.31;;;20.00;34.11
76122;BME280;70471;53.200;6.080;2024-03-02T12:21:48;100195.59;;;20.04;33.35
76122;BME280;70471;53.200;6.080;2024-03-02T12:26:41;100192.31;;;20.02;33.83
76122;BME280;70471;53.200;6.080;2024-03-02T12:31:34;100193.19;;;20.11;33.19
76122;BME280;70471;53.200;6.080;2024-03-02T12:36:26;100185.59;;;20.17;33.49
76122;BME280;70471;53.200;6.080;2024-03-02T12:41:17;100189.69;;;20.19;33.40
76122;BME280;70471;53.200;6.080;2024-03-02T12:46:10;100194.38;;;20.19;33.30
76122;BME280;70471;53.200;6.080;2024-03-02T12:51:02;100195.22;;;20.19;33.29
76122;BME280;70471;53.200;6.080;2024-03-02T12:55:54;100199.41;;;20.17;33.24
76122;BME280;70471;53.200;6.080;2024-03-02T13:00:46;100191.13;;;20.17;33.04
76122;BME280;70471;53.200;6.080;2024-03-02T13:05:39;100185.75;;;20.20;33.24
76122;BME280;70471;53.200;6.080;2024-03-02T13:10:30;100190.00;;;20.27;32.92
76122;BME280;70471;53.200;6.080;2024-03-02T13:15:22;100177.94;;;20.23;32.70
76122;BME280;70471;53.200;6.080;2024-03-02T13:20:14;100171.94;;;20.20;33.34
76122;BME280;70471;53.200;6.080;2024-03-02T13:25:08;100174.69;;;20.20;32.88
76122;BME280;70471;53.200;6.080;2024-03-02T13:30:02;100165.91;;;20.18;32.87
76122;BME280;70471;53.200;6.080;2024-03-02T13:34:54;100164.25;;;20.17;33.57
76122;BME280;70471;53.200;6.080;2024-03-02T13:39:45;100155.47;;;20.15;33.02
76122;BME280;70471;53.200;6.080;2024-03-02T13:44:38;100160.53;;;20.13;33.07
76122;BME280;70471;53.200;6.080;2024-03-02T13:49:29;100153.66;;;20.11;33.73
76122;BME280;70471;53.200;6.080;2024-03-02T13:54:26;100158.38;;;20.10;33.27
76122;BME280;70471;53.200;6.080;2024-03-02T13:59:17;100156.75;;;20.09;33.67
76122;BME280;70471;53.200;6.080;2024-03-02T14:04:10;100158.38;;;20.10;33.29
76122;BME280;70471;53.200;6.080;2024-03-02T14:09:02;100141.78;;;20.10;33.84
76122;BME280;70471;53.200;6.080;2024-03-02T14:13:54;100139.34;;;20.09;33.73
76122;BME280;70471;53.200;6.080;2024-03-02T14:18:47;100147.31;;;20.10;33.70
76122;BME280;70471;53.200;6.080;2024-03-02T14:23:40;100143.41;;;20.11;33.52
76122;BME280;70471;53.200;6.080;2024-03-02T14:28:31;100147.00;;;20.12;33.80
76122;BME280;70471;53.200;6.080;2024-03-02T14:33:23;100140.16;;;20.09;33.44
76122;BME280;70471;53.200;6.080;2024-03-02T14:38:14;100133.81;;;20.09;33.75
76122;BME280;70471;53.200;6.080;2024-03-02T14:43:07;100139.53;;;20.12;34.29
76122;BME280;70471;53.200;6.080;2024-03-02T14:47:59;100131.72;;;20.14;33.87
76122;BME280;70471;53.200;6.080;2024-03-02T14:52:50;100121.81;;;20.13;34.22
76122;BME280;70471;53.200;6.080;2024-03-02T14:57:42;100117.41;;;20.12;34.26
76122;BME280;70471;53.200;6.080;2024-03-02T15:02:35;100121.97;;;20.17;34.46
76122;BME280;70471;53.200;6.080;2024-03-02T15:07:26;100114.63;;;20.21;34.19
76122;BME280;70471;53.200;6.080;2024-03-02T15:12:18;100104.41;;;20.22;34.17
76122;BME280;70471;53.200;6.080;2024-03-02T15:17:09;100107.19;;;20.22;34.34
76122;BME280;70471;53.200;6.080;2024-03-02T15:22:02;100109.09;;;20.21;35.19
76122;BME280;70471;53.200;6.080;2024-03-02T15:26:53;100107.19;;;20.22;34.33
76122;BME280;70471;53.200;6.080;2024-03-02T15:31:45;100107.03;;;20.27;35.32
76122;BME280;70471;53.200;6.080;2024-03-02T15:36:36;100113.25;;;20.32;36.04
76122;BME280;70471;53.200;6.080;2024-03-02T15:41:29;100099.59;;;20.36;35.94
76122;BME280;70471;53.200;6.080;2024-03-02T15:46:20;100105.47;;;20.43;36.12
76122;BME280;70471;53.200;6.080;2024-03-02T15:51:12;100103.06;;;20.50;35.81
76122;BME280;70471;53.200;6.080;2024-03-02T15:56:03;100101.59;;;20.62;36.41
76122;BME280;70471;53.200;6.080;2024-03-02T16:00:56;100098.38;;;20.77;35.23
76122;BME280;70471;53.200;6.080;2024-03-02T16:05:48;100101.97;;;20.86;34.90
76122;BME280;70471;53.200;6.080;2024-03-02T16:10:39;100090.41;;;20.93;34.75
76122;BME280;70471;53.200;6.080;2024-03-02T16:15:31;100088.59;;;20.97;34.53
76122;BME280;70471;53.200;6.080;2024-03-02T16:20:24;100088.59;;;21.06;34.80
76122;BME280;70471;53.200;6.080;2024-03-02T16:25:16;100091.72;;;21.13;34.53
76122;BME280;70471;53.200;6.080;2024-03-02T16:30:08;100095.47;;;21.17;34.34
76122;BME280;70471;53.200;6.080;2024-03-02T16:34:59;100090.41;;;21.19;34.13
76122;BME280;70471;53.200;6.080;2024-03-02T16:39:52;100082.09;;;21.19;34.45
76122;BME280;70471;53.200;6.080;2024-03-02T16:44:45;100087.16;;;21.17;33.97
76122;BME280;70471;53.200;6.080;2024-03-02T16:49:38;100084.56;;;21.12;33.89
76122;BME280;70471;53.200;6.080;2024-03-02T16:54:29;100083.06;;;21.06;34.38
76122;BME280;70471;53.200;6.080;2024-03-02T16:59:22;100091.22;;;21.02;34.56
76122;BME280;70471;53.200;6.080;2024-03-02T17:04:14;100094.63;;;20.99;34.39
76122;BME280;70471;53.200;6.080;2024-03-02T17:09:05;100095.28;;;20.96;34.59
76122;BME280;70471;53.200;6.080;2024-03-02T17:13:57;100102.94;;;20.90;34.60
76122;BME280;70471;53.200;6.080;2024-03-02T17:18:50;100101.97;;;20.86;34.34
76122;BME280;70471;53.200;6.080;2024-03-02T17:23:42;100104.22;;;20.84;34.36
76122;BME280;70471;53.200;6.080;2024-03-02T17:28:34;100099.97;;;20.78;34.56
76122;BME280;70471;53.200;6.080;2024-03-02T17:33:25;100100.66;;;20.75;34.47
76122;BME280;70471;53.200;6.080;2024-03-02T17:38:18;100102.09;;;20.72;35.11
76122;BME280;70471;53.200;6.080;2024-03-02T17:43:10;100098.03;;;20.70;34.96
76122;BME280;70471;53.200;6.080;2024-03-02T17:48:02;100105.84;;;20.68;34.74
76122;BME280;70471;53.200;6.080;2024-03-02T17:52:53;100104.22;;;20.67;34.82
76122;BME280;70471;53.200;6.080;2024-03-02T17:57:46;100096.22;;;20.65;35.48
76122;BME280;70471;53.200;6.080;2024-03-02T18:02:39;100104.84;;;20.64;35.79
76122;BME280;70471;53.200;6.080;2024-03-02T18:07:30;100108.94;;;20.66;35.71
76122;BME280;70471;53.200;6.080;2024-03-02T18:12:22;100112.38;;;20.72;35.89
76122;BME280;70471;53.200;6.080;2024-03-02T18:17:15;100119.53;;;20.73;35.63
76122;BME280;70471;53.200;6.080;2024-03-02T18:22:07;100120.53;;;20.77;36.07
76122;BME280;70471;53.200;6.080;2024-03-02T18:26:58;100123.78;;;20.79;35.66
76122;BME280;70471;53.200;6.080;2024-03-02T18:31:50;100127.84;;;20.82;35.81
76122;BME280;70471;53.200;6.080;2024-03-02T18:36:43;100124.75;;;20.83;35.41
76122;BME280;70471;53.200;6.080;2024-03-02T18:41:35;100124.91;;;20.87;36.02
76122;BME280;70471;53.200;6.080;2024-03-02T18:46:26;100131.78;;;20.89;35.40
76122;BME280;70471;53.200;6.080;2024-03-02T18:51:20;100126.56;;;20.88;35.59
76122;BME280;70471;53.200;6.080;2024-03-02T18:56:14;100131.25;;;20.87;35.22
76122;BME280;70471;53.200;6.080;2024-03-02T19:01:06;100125.25;;;20.85;35.52
76122;BME280;70471;53.200;6.080;2024-03-02T19:05:58;100131.91;;;20.84;35.58
76122;BME280;70471;53.200;6.080;2024-03-02T19:10:51;100137.28;;;20.81;35.58
76122;BME280;70471;53.200;6.080;2024-03-02T19:15:44;100137.13;;;20.77;35.57
76122;BME280;70471;53.200;6.080;2024-03-02T19:20:36;100127.50;;;20.74;35.40
76122;BME280;70471;53.200;6.080;2024-03-02T19:25:27;100130.13;;;20.71;35.38
76122;BME280;70471;53.200;6.080;2024-03-02T19:30:19;100126.34;;;20.67;35.63
76122;BME280;70471;53.200;6.080;2024-03-02T19:35:12;100128.00;;;20.68;35.23
76122;BME280;70471;53.200;6.080;2024-03-02T19:40:04;100123.75;;;20.62;35.01
76122;BME280;70471;53.200;6.080;2024-03-02T19:44:56;100122.44;;;20.59;35.54
76122;BME280;70471;53.200;6.080;2024-03-02T19:49:48;100124.22;;;20.55;35.37
76122;BME280;70471;53.200;6.080;2024-03-02T19:54:40;100120.13;;;20.52;35.25
76122;BME280;70471;53.200;6.080;2024-03-02T19:59:32;100124.88;;;20.52;36.53
76122;BME280;70471;53.200;6.080;2024-03-02T20:04:24;100124.06;;;20.51;37.11
76122;BME280;70471;53.200;6.080;2024-03-02T20:09:15;100119.81;;;20.54;36.75
76122;BME280;70471;53.200;6.080;2024-03-02T20:14:10;100118.03;;;20.58;36.40
76122;BME280;70471;53.200;6.080;2024-03-02T20:19:02;100117.41;;;20.61;36.30
76122;BME280;70471;53.200;6.080;2024-03-02T20:23:54;100111.03;;;20.61;36.44
76122;BME280;70471;53.200;6.080;2024-03-02T20:28:47;100103.25;;;20.63;36.16
76122;BME280;70471;53.200;6.080;2024-03-02T20:33:44;100105.84;;;20.68;36.68
76122;BME280;70471;53.200;6.080;2024-03-02T20:38:38;100109.09;;;20.70;36.29
76122;BME280;70471;53.200;6.080;2024-03-02T20:43:31;100081.91;;;20.63;36.66
76122;BME280;70471;53.200;6.080;2024-03-02T20:48:24;100084.19;;;20.70;36.10
76122;BME280;70471;53.200;6.080;2024-03-02T20:53:22;100086.31;;;20.73;36.26
76122;BME280;70471;53.200;6.080;2024-03-02T20:58:14;100078.31;;;20.71;36.30
76122;BME280;70471;53.200;6.080;2024-03-02T21:03:06;100076.06;;;20.73;35.79
76122;BME280;70471;53.200;6.080;2024-03-02T21:07:59;100059.28;;;20.61;36.06
76122;BME280;70471;53.200;6.080;2024-03-02T21:12:52;100081.94;;;20.72;35.86
76122;BME280;70471;53.200;6.080;2024-03-02T21:17:44;100064.66;;;20.66;36.13
76122;BME280;70471;53.200;6.080;2024-03-02T21:22:37;100074.75;;;20.71;36.31
76122;BME280;70471;53.200;6.080;2024-03-02T21:27:31;100063.19;;;20.69;36.22
76122;BME280;70471;53.200;6.080;2024-03-02T21:32:25;100071.19;;;20.70;35.83
76122;BME280;70471;53.200;6.080;2024-03-02T21:37:17;100078.31;;;20.71;35.97
76122;BME280;70471;53.200;6.080;2024-03-02T21:42:09;100081.41;;;20.70;35.85
76122;BME280;70471;53.200;6.080;2024-03-02T21:47:02;100075.06;;;20.69;36.34
76122;BME280;70471;53.200;6.080;2024-03-02T21:51:56;100070.66;;;20.68;35.86
76122;BME280;70471;53.200;6.080;2024-03-02T21:56:48;100066.28;;;20.67;35.78
76122;BME280;70471;53.200;6.080;2024-03-02T22:01:40;100074.28;;;20.69;36.12
76122;BME280;70471;53.200;6.080;2024-03-02T22:06:33;100076.84;;;20.65;35.54
76122;BME280;70471;53.200;6.080;2024-03-02T22:11:29;100067.75;;;20.65;35.53
76122;BME280;70471;53.200;6.080;2024-03-02T22:16:22;100081.09;;;20.63;35.68
76122;BME280;70471;53.200;6.080;2024-03-02T22:21:16;100068.06;;;20.54;35.64
76122;BME280;70471;53.200;6.080;2024-03-02T22:26:08;100077.03;;;20.51;35.67
76122;BME280;70471;53.200;6.080;2024-03-02T22:31:02;100078.16;;;20.50;35.74
76122;BME280;70471;53.200;6.080;2024-03-02T22:35:55;100085.31;;;20.51;35.28
76122;BME280;70471;53.200;6.080;2024-03-02T22:40:48;100067.53;;;20.35;35.39
76122;BME280;70471;53.200;6.080;2024-03-02T22:45:41;100092.13;;;20.45;35.17
76122;BME280;70471;53.200;6.080;2024-03-02T22:50:35;100086.09;;;20.43;35.31
76122;BME280;70471;53.200;6.080;2024-03-02T22:55:27;100090.34;;;20.41;35.25
76122;BME280;70471;53.200;6.080;2024-03-02T23:00:23;100089.34;;;20.36;35.64
76122;BME280;70471;53.200;6.080;2024-03-02T23:05:25;100090.44;;;20.27;35.52
76122;BME280;70471;53.200;6.080;2024-03-02T23:10:19;100102.63;;;20.26;35.50
76122;BME280;70471;53.200;6.080;2024-03-02T23:15:12;100088.09;;;20.11;35.42
76122;BME280;70471;53.200;6.080;2024-03-02T23:20:05;100105.84;;;20.19;35.26
76122;BME280;70471;53.200;6.080;2024-03-02T23:24:58;100123.28;;;20.19;35.06
76122;BME280;70471;53.200;6.080;2024-03-02T23:29:53;100119.19;;;20.17;35.65
76122;BME280;70471;53.200;6.080;2024-03-02T23:34:45;100099.78;;;19.99;35.42
76122;BME280;70471;53.200;6.080;2024-03-02T23:39:38;100115.91;;;20.06;35.02
76122;BME280;70471;53.200;6.080;2024-03-02T23:44:47;100118.19;;;20.04;35.65
76122;BME280;70471;53.200;6.080;2024-03-02T23:49:41;100118.81;;;20.01;35.56
76122;BME280;70471;53.200;6.080;2024-03-02T23:54:33;100115.25;;;20.00;35.46
76122;BME280;70471;53.200;6.080;2024-03-02T23:59:26;100122.22;;;19.98;35.59
